»·PEaware :: N286SL KSAC-KOAK

N286SL :: KSAC-KOAK

FLIGHT INFORMATION

Flight Status: Arrived
Operator: Privately registered:
United States
More flights under this callsign
Pilot: Nickolaus B. (17683)
Aircraft: BEECH AIRCRAFT A90-E90 KING AIR
(BE9L)
More flights by this aircraft type
Origin: KSAC Sacramento Executive
United States
Destination: KOAK Metro Oakland Intl
United States
More flights between these airports :: More routes between these airports
Route: +SAC V334 SUNOL
File this flight plan on PilotEdge
Remarks:
Altitude:
(Current/Filed)
8,000ft
Speed:
(Current/Filed)
230kts
Departed: 07-Aug-18 11:26 AM
Arrived: 07-Aug-18 11:55 AM
Distance/Time
Traveled:
58nm/0:29
Distance/Time
To Go:
Arrived

Flight Plot

Page will automatically refresh every two minutes.

Flight plan parsing failed; only flown route is shown


Map Options




Map Legend


Flown Route
Filed Route
Departure Airport
Arrival Airport
Navaid (VOR, NDB)
Fix

Horizontal Profiles

Position Reports

Time Latitude Longitude Heading Altitude Ground
Speed
07-Aug-18 11:09 38.517912 -121.496415 225 23ft 0kts
07-Aug-18 11:10 38.517912 -121.496415 225 23ft 0kts
07-Aug-18 11:11 38.517912 -121.496415 225 23ft 0kts
07-Aug-18 11:12 38.517912 -121.496415 225 23ft 0kts
07-Aug-18 11:13 38.517912 -121.496415 225 23ft 0kts
07-Aug-18 11:14 38.517912 -121.496415 225 23ft 0kts
07-Aug-18 11:15 38.517912 -121.496415 225 23ft 0kts
07-Aug-18 11:16 38.517912 -121.496415 225 23ft 0kts
07-Aug-18 11:17 38.517912 -121.496415 225 23ft 0kts
07-Aug-18 11:18 38.517912 -121.496415 225 23ft 0kts
07-Aug-18 11:19 38.516715 -121.496779 205 23ft 15kts
07-Aug-18 11:20 38.513949 -121.496853 173 19ft 5kts
07-Aug-18 11:21 38.514140 -121.494971 31 19ft 9kts
07-Aug-18 11:22 38.516554 -121.492971 32 22ft 12kts
07-Aug-18 11:23 38.519213 -121.490521 101 23ft 8kts
07-Aug-18 11:24 38.519187 -121.490382 104 23ft 0kts
07-Aug-18 11:25 38.519181 -121.490354 104 23ft 0kts
07-Aug-18 11:26 38.518446 -121.489732 212 23ft 9kts
07-Aug-18 11:27 38.500888 -121.503754 191 652ft 120kts
07-Aug-18 11:28 38.467743 -121.488716 161 2486ft 133kts
07-Aug-18 11:29 38.432557 -121.473725 161 4256ft 136kts
07-Aug-18 11:30 38.423348 -121.441083 23 5847ft 145kts
07-Aug-18 11:31 38.458021 -121.415681 102 6001ft 198kts
07-Aug-18 11:32 38.413387 -121.374162 149 5998ft 208kts
07-Aug-18 11:33 38.364318 -121.338020 150 5996ft 210kts
07-Aug-18 11:34 38.312615 -121.324289 231 5990ft 214kts
07-Aug-18 11:35 38.288554 -121.392686 242 5998ft 214kts
07-Aug-18 11:36 38.262218 -121.458517 242 5999ft 215kts
07-Aug-18 11:37 38.236076 -121.524151 242 5997ft 215kts
07-Aug-18 11:38 38.209475 -121.590827 241 5995ft 214kts
07-Aug-18 11:39 38.172088 -121.640414 187 5991ft 208kts
07-Aug-18 11:40 38.117416 -121.653560 191 5991ft 208kts
07-Aug-18 11:41 38.062149 -121.670184 192 5929ft 208kts
07-Aug-18 11:42 38.006513 -121.687302 193 5945ft 210kts
07-Aug-18 11:43 37.950763 -121.704492 194 5963ft 220kts
07-Aug-18 11:44 37.900119 -121.720078 193 5971ft 222kts
07-Aug-18 11:45 37.843747 -121.737405 193 5970ft 222kts
07-Aug-18 11:46 37.796480 -121.784272 224 5536ft 223kts
07-Aug-18 11:47 37.752560 -121.836510 224 4736ft 211kts
07-Aug-18 11:48 37.711880 -121.884312 224 3997ft 196kts
07-Aug-18 11:49 37.675798 -121.927040 231 3967ft 171kts
07-Aug-18 11:50 37.666223 -121.985499 262 3512ft 180kts
07-Aug-18 11:51 37.671393 -122.039900 293 3375ft 154kts
07-Aug-18 11:52 37.687956 -122.090820 293 2241ft 163kts
07-Aug-18 11:53 37.703367 -122.138395 293 1489ft 102kts
07-Aug-18 11:54 37.713599 -122.169616 292 584ft 99kts
07-Aug-18 11:55 37.724025 -122.202138 292 74ft 95kts
07-Aug-18 11:56 37.728348 -122.212842 346 6ft 0kts
07-Aug-18 11:57 37.730394 -122.213425 32 6ft 9kts
07-Aug-18 11:58 37.730458 -122.213521 217 6ft 0kts
07-Aug-18 11:59 37.730459 -122.213521 217 6ft 0kts

Navigation Log

Ident Type
Flight plan parsing failed, navigation log unavailable